createdAt,value
2018-06-15T00:04:13.829Z,99.90
2018-06-15T00:09:17.116Z,99.90
2018-06-15T00:14:20.383Z,99.90
2018-06-15T00:19:23.684Z,98.60
2018-06-15T00:24:26.992Z,99.40
2018-06-15T00:29:30.269Z,99.70
2018-06-15T00:34:33.571Z,99.90
2018-06-15T00:39:36.836Z,99.90
2018-06-15T00:44:40.109Z,99.90
2018-06-15T00:49:43.379Z,99.90
2018-06-15T00:54:46.677Z,99.90
2018-06-15T00:59:49.929Z,99.90
2018-06-15T01:04:53.185Z,99.90
2018-06-15T01:09:56.471Z,99.90
2018-06-15T01:14:59.744Z,99.90
2018-06-15T01:20:03.004Z,99.90
2018-06-15T01:25:06.257Z,99.90
2018-06-15T01:35:12.494Z,99.90
2018-06-15T01:40:15.761Z,99.90
2018-06-15T01:45:19.025Z,99.90
2018-06-15T01:50:22.289Z,99.90
2018-06-15T01:55:25.555Z,99.90
2018-06-15T02:00:28.893Z,99.90
2018-06-15T02:05:32.596Z,99.90
2018-06-15T02:10:35.872Z,99.90
2018-06-15T02:15:39.149Z,99.90
2018-06-15T02:20:42.415Z,99.90
2018-06-15T02:25:45.693Z,99.90
2018-06-15T02:35:52.285Z,99.90
2018-06-15T02:40:55.592Z,99.90
2018-06-15T02:45:58.860Z,99.90
2018-06-15T02:51:02.151Z,99.90
2018-06-15T02:56:05.418Z,99.90
2018-06-15T03:01:08.671Z,99.90
2018-06-15T03:06:11.956Z,99.90
2018-06-15T03:11:15.243Z,99.90
2018-06-15T03:16:18.509Z,99.90
2018-06-15T03:21:21.771Z,99.90
2018-06-15T03:26:25.027Z,99.90
2018-06-15T03:31:28.292Z,99.90
2018-06-15T03:36:31.550Z,99.90
2018-06-15T03:41:34.815Z,99.90
2018-06-15T03:46:38.665Z,99.90
2018-06-15T03:51:41.945Z,99.90
2018-06-15T03:56:45.221Z,99.90
2018-06-15T04:01:48.571Z,99.90
2018-06-15T04:06:51.893Z,99.90
2018-06-15T04:11:55.172Z,99.90
2018-06-15T04:16:58.420Z,99.90
2018-06-15T04:22:01.704Z,99.90
2018-06-15T04:27:05.045Z,99.90
2018-06-15T04:32:08.358Z,99.90
2018-06-15T04:37:11.689Z,99.90
2018-06-15T04:42:14.952Z,99.90
2018-06-15T04:47:18.224Z,99.90
2018-06-15T04:52:21.507Z,99.90
2018-06-15T04:57:24.795Z,99.90
2018-06-15T05:02:28.154Z,99.90
2018-06-15T05:07:31.425Z,99.90
2018-06-15T05:12:34.674Z,99.90
2018-06-15T05:17:37.937Z,99.90
2018-06-15T05:22:41.216Z,99.00
2018-06-15T05:27:44.463Z,98.80
2018-06-15T05:32:47.732Z,97.10
2018-06-15T05:37:50.995Z,97.40
2018-06-15T05:42:54.263Z,98.10
2018-06-15T05:47:57.534Z,99.00
2018-06-15T05:53:00.799Z,98.70
2018-06-15T05:58:04.080Z,98.90
2018-06-15T06:03:07.510Z,99.90
2018-06-15T06:08:10.769Z,99.90
2018-06-15T06:13:14.008Z,98.30
2018-06-15T06:18:18.946Z,98.40
2018-06-15T06:23:22.328Z,99.10
2018-06-15T06:33:28.640Z,96.40
2018-06-15T06:38:31.946Z,97.10
2018-06-15T06:43:35.357Z,93.20
2018-06-15T06:48:38.654Z,92.50
2018-06-15T06:53:42.110Z,92.10
2018-06-15T06:58:45.570Z,92.70
2018-06-15T07:03:48.943Z,93.50
2018-06-15T07:13:55.253Z,87.20
2018-06-15T07:18:58.543Z,86.50
2018-06-15T07:24:01.859Z,86.50
2018-06-15T07:29:05.124Z,80.50
2018-06-15T07:34:08.401Z,84.10
2018-06-15T07:39:12.495Z,73.90
2018-06-15T07:44:15.739Z,75.70
2018-06-15T07:49:18.995Z,76.70
2018-06-15T07:54:22.264Z,80.90
2018-06-15T08:04:28.559Z,75.20
2018-06-15T08:09:31.816Z,72.40
2018-06-15T08:14:35.075Z,62.90
2018-06-15T08:19:38.339Z,65.50
2018-06-15T08:24:41.586Z,64.80
2018-06-15T08:29:44.865Z,65.00
2018-06-15T08:34:48.223Z,61.80
2018-06-15T08:39:51.467Z,60.30
2018-06-15T08:44:55.487Z,54.30
2018-06-15T08:49:58.844Z,51.30
2018-06-15T08:55:02.124Z,51.80
2018-06-15T09:00:05.392Z,52.10
2018-06-15T09:05:08.695Z,48.30
2018-06-15T09:10:11.981Z,51.70
2018-06-15T09:15:15.251Z,49.30
2018-06-15T09:20:18.502Z,43.80
2018-06-15T09:25:21.783Z,43.20
2018-06-15T09:30:25.065Z,48.60
2018-06-15T09:35:28.311Z,45.80
2018-06-15T09:40:31.576Z,45.00
2018-06-15T09:45:35.132Z,48.20
2018-06-15T09:50:38.399Z,46.40
2018-06-15T09:55:41.663Z,46.10
2018-06-15T10:01:21.855Z,43.30
2018-06-15T10:06:25.099Z,47.00
2018-06-15T10:11:28.368Z,44.50
2018-06-15T10:16:31.614Z,38.10
2018-06-15T10:21:34.906Z,39.40
2018-06-15T10:26:38.162Z,42.70
2018-06-15T10:36:44.539Z,44.20
2018-06-15T10:41:47.784Z,36.90
2018-06-15T10:51:54.060Z,39.00
2018-06-15T10:56:57.298Z,43.50
2018-06-15T11:02:00.566Z,40.30
2018-06-15T11:07:03.826Z,37.60
2018-06-15T11:22:13.076Z,36.40
2018-06-15T11:27:16.331Z,37.40
2018-06-15T11:32:19.595Z,37.60
2018-06-15T11:37:22.846Z,37.90
2018-06-15T11:42:26.108Z,36.10
2018-06-15T11:47:29.373Z,35.90
2018-06-15T11:52:32.631Z,37.40
2018-06-15T11:57:35.883Z,38.10
2018-06-15T12:02:39.147Z,34.70
2018-06-15T12:07:42.425Z,37.10
2018-06-15T12:12:45.671Z,36.40
2018-06-15T12:17:48.926Z,37.30
2018-06-15T12:22:52.169Z,35.60
2018-06-15T12:38:08.104Z,35.40
2018-06-15T12:43:11.404Z,34.30
2018-06-15T12:48:14.651Z,41.20
2018-06-15T12:53:17.924Z,41.80
2018-06-15T12:58:21.732Z,41.50
2018-06-15T13:03:25.532Z,37.40
2018-06-15T13:08:28.799Z,34.10
2018-06-15T13:13:32.059Z,31.50
2018-06-15T13:18:35.319Z,30.10
2018-06-15T13:23:38.639Z,28.50
2018-06-15T13:28:41.908Z,31.10
2018-06-15T13:33:45.391Z,29.80
2018-06-15T13:43:51.998Z,28.40
2018-06-15T13:48:55.271Z,30.80
2018-06-15T13:53:58.559Z,32.10
2018-06-15T13:59:01.854Z,31.30
2018-06-15T14:04:05.394Z,34.90
2018-06-15T14:09:09.611Z,35.50
2018-06-15T14:14:12.866Z,32.80
2018-06-15T14:19:16.127Z,30.80
2018-06-15T14:24:19.427Z,27.60
2018-06-15T14:29:22.711Z,27.70
2018-06-15T14:34:25.976Z,26.60
2018-06-15T14:39:29.228Z,28.80
2018-06-15T14:44:32.504Z,33.20
2018-06-15T14:49:35.860Z,33.40
2018-06-15T14:54:39.135Z,35.80
2018-06-15T14:59:42.393Z,36.70
2018-06-15T15:04:45.709Z,37.30
2018-06-15T15:09:48.933Z,32.90
2018-06-15T15:14:52.270Z,33.60
2018-06-15T15:19:55.506Z,30.30
2018-06-15T15:24:58.779Z,31.00
2018-06-15T15:30:02.076Z,35.50
2018-06-15T15:35:05.513Z,35.30
2018-06-15T15:40:08.790Z,34.00
2018-06-15T15:50:15.035Z,36.90
2018-06-15T15:55:18.400Z,38.90
2018-06-15T16:05:25.124Z,39.00
2018-06-15T16:10:28.367Z,39.60
2018-06-15T16:15:31.618Z,39.50
2018-06-15T16:20:34.873Z,40.00
2018-06-15T16:40:47.271Z,42.90
2018-06-15T16:45:50.831Z,41.60
2018-06-15T16:50:54.099Z,42.50
2018-06-15T16:55:58.200Z,41.30
2018-06-15T17:01:01.543Z,41.80
2018-06-15T17:06:04.854Z,41.60
2018-06-15T17:11:08.180Z,41.60
2018-06-15T17:16:11.438Z,42.80
2018-06-15T17:21:14.722Z,44.00
2018-06-15T17:36:24.140Z,44.40
2018-06-15T17:46:30.404Z,44.70
2018-06-15T17:51:33.770Z,46.40
2018-06-15T18:01:40.135Z,46.60
2018-06-15T18:06:43.380Z,45.10
2018-06-15T18:11:46.652Z,45.70
2018-06-15T18:16:50.328Z,46.80
2018-06-15T18:21:54.298Z,47.90
2018-06-15T18:26:57.843Z,48.70
2018-06-15T18:37:04.776Z,52.30
2018-06-15T18:42:08.280Z,51.20
2018-06-15T18:47:11.883Z,52.20
2018-06-15T18:52:15.450Z,52.20
2018-06-15T18:57:19.593Z,52.50
2018-06-15T19:02:23.732Z,54.00
2018-06-15T19:07:27.416Z,55.00
2018-06-15T19:12:31.426Z,57.10
2018-06-15T19:17:35.011Z,59.00
2018-06-15T19:22:38.826Z,60.40
2018-06-15T19:27:44.318Z,61.60
2018-06-15T19:32:48.588Z,61.30
2018-06-15T19:47:59.621Z,62.40
2018-06-15T19:53:03.605Z,64.20
2018-06-15T19:58:07.048Z,64.30
2018-06-15T20:03:10.678Z,64.00
2018-06-15T20:08:14.339Z,63.80
2018-06-15T20:13:17.847Z,63.50
2018-06-15T20:18:21.510Z,64.40
2018-06-15T20:23:25.130Z,64.90
2018-06-15T20:28:29.048Z,65.70
2018-06-15T20:33:32.650Z,66.10
2018-06-15T20:38:36.279Z,66.90
2018-06-15T20:43:39.850Z,67.30
2018-06-15T20:48:43.412Z,69.90
2018-06-15T20:53:47.034Z,70.50
2018-06-15T20:58:50.326Z,70.90
2018-06-15T21:03:53.575Z,71.30
2018-06-15T21:08:56.863Z,73.50
2018-06-15T21:14:00.117Z,74.90
2018-06-15T21:19:03.384Z,76.10
2018-06-15T21:24:06.660Z,77.20
2018-06-15T21:29:09.938Z,76.90
2018-06-15T21:34:13.203Z,77.20
2018-06-15T21:39:16.489Z,78.50
2018-06-15T21:44:19.798Z,80.50
2018-06-15T21:49:23.047Z,80.90
2018-06-15T21:54:26.335Z,82.10
2018-06-15T21:59:29.653Z,82.60
2018-06-15T22:04:32.927Z,83.80
2018-06-15T22:09:36.180Z,84.50
2018-06-15T22:14:39.434Z,85.80
2018-06-15T22:19:42.712Z,85.80
2018-06-15T22:24:45.992Z,83.50
2018-06-15T22:29:49.235Z,83.60
2018-06-15T22:34:52.476Z,83.30
2018-06-15T22:39:55.730Z,83.90
2018-06-15T22:44:58.989Z,84.90
2018-06-15T22:50:02.255Z,86.30
2018-06-15T22:55:05.715Z,86.90
2018-06-15T23:00:08.967Z,87.10
2018-06-15T23:05:12.222Z,85.80
2018-06-15T23:10:15.489Z,86.50
2018-06-15T23:20:21.726Z,88.10
2018-06-15T23:25:25.001Z,89.00
2018-06-15T23:30:28.255Z,90.80
2018-06-15T23:35:31.492Z,91.20
2018-06-15T23:40:34.812Z,90.40
2018-06-15T23:45:38.067Z,90.70
2018-06-15T23:50:41.332Z,91.10
2018-06-15T23:55:44.605Z,91.30
